sensor_id;sensor_type;location;lat;lon;timestamp;pressure;altitude;pressure_sealevel;temperature;humidity
38780;BME280;29273;49.962;9.768;2023-02-26T00:00:16;99401.66;;;4.97;53.80
38780;BME280;29273;49.962;9.768;2023-02-26T00:02:46;99410.34;;;4.97;53.67
38780;BME280;29273;49.962;9.768;2023-02-26T00:05:13;99409.34;;;4.98;54.04
38780;BME280;29273;49.962;9.768;2023-02-26T00:07:39;99419.06;;;4.98;52.95
38780;BME280;29273;49.962;9.768;2023-02-26T00:10:06;99412.63;;;5.00;52.88
38780;BME280;29273;49.962;9.768;2023-02-26T00:12:33;99420.50;;;5.00;52.48
38780;BME280;29273;49.962;9.768;2023-02-26T00:14:59;99421.47;;;4.99;51.97
38780;BME280;29273;49.962;9.768;2023-02-26T00:17:44;99424.94;;;5.00;54.22
38780;BME280;29273;49.962;9.768;2023-02-26T00:20:13;99425.28;;;4.97;52.55
38780;BME280;29273;49.962;9.768;2023-02-26T00:22:41;99422.03;;;4.95;52.78
38780;BME280;29273;49.962;9.768;2023-02-26T00:25:08;99428.25;;;4.94;52.66
38780;BME280;29273;49.962;9.768;2023-02-26T00:27:34;99429.59;;;4.90;52.89
38780;BME280;29273;49.962;9.768;2023-02-26T00:30:01;99425.50;;;4.87;52.36
38780;BME280;29273;49.962;9.768;2023-02-26T00:32:28;99430.91;;;4.86;52.48
38780;BME280;29273;49.962;9.768;2023-02-26T00:34:53;99439.97;;;4.83;52.72
38780;BME280;29273;49.962;9.768;2023-02-26T00:37:31;99433.88;;;4.82;53.57
38780;BME280;29273;49.962;9.768;2023-02-26T00:40:14;99437.84;;;4.78;54.10
38780;BME280;29273;49.962;9.768;2023-02-26T00:42:43;99435.09;;;4.72;52.82
38780;BME280;29273;49.962;9.768;2023-02-26T00:45:11;99434.09;;;4.73;53.62
38780;BME280;29273;49.962;9.768;2023-02-26T00:50:23;99437.44;;;4.67;53.57
38780;BME280;29273;49.962;9.768;2023-02-26T00:55:37;99441.72;;;4.59;53.22
38780;BME280;29273;49.962;9.768;2023-02-26T00:58:03;99433.38;;;4.56;53.15
38780;BME280;29273;49.962;9.768;2023-02-26T01:00:29;99434.22;;;4.56;53.81
38780;BME280;29273;49.962;9.768;2023-02-26T01:02:55;99435.38;;;4.54;53.37
38780;BME280;29273;49.962;9.768;2023-02-26T01:05:21;99433.88;;;4.51;53.22
38780;BME280;29273;49.962;9.768;2023-02-26T01:10:34;99437.84;;;4.47;53.18
38780;BME280;29273;49.962;9.768;2023-02-26T01:13:00;99431.13;;;4.44;53.25
38780;BME280;29273;49.962;9.768;2023-02-26T01:15:26;99435.56;;;4.44;52.87
38780;BME280;29273;49.962;9.768;2023-02-26T01:18:11;99440.66;;;4.45;54.66
38780;BME280;29273;49.962;9.768;2023-02-26T01:21:04;99434.28;;;4.40;54.29
38780;BME280;29273;49.962;9.768;2023-02-26T01:23:38;99432.47;;;4.40;53.52
38780;BME280;29273;49.962;9.768;2023-02-26T01:26:13;99430.19;;;4.37;53.79
38780;BME280;29273;49.962;9.768;2023-02-26T01:28:41;99435.94;;;4.33;52.87
38780;BME280;29273;49.962;9.768;2023-02-26T01:31:25;99445.28;;;4.35;54.20
38780;BME280;29273;49.962;9.768;2023-02-26T01:33:59;99447.44;;;4.32;53.49
38780;BME280;29273;49.962;9.768;2023-02-26T01:36:31;99444.13;;;4.30;53.31
38780;BME280;29273;49.962;9.768;2023-02-26T01:39:27;99455.78;;;4.27;53.23
38780;BME280;29273;49.962;9.768;2023-02-26T01:41:59;99452.69;;;4.23;53.88
38780;BME280;29273;49.962;9.768;2023-02-26T01:44:38;99461.53;;;4.22;53.93
38780;BME280;29273;49.962;9.768;2023-02-26T01:49:42;99458.94;;;4.14;53.51
38780;BME280;29273;49.962;9.768;2023-02-26T01:54:59;99458.97;;;4.06;52.65
38780;BME280;29273;49.962;9.768;2023-02-26T01:57:25;99460.78;;;4.05;52.84
38780;BME280;29273;49.962;9.768;2023-02-26T01:59:51;99459.13;;;4.04;53.54
38780;BME280;29273;49.962;9.768;2023-02-26T02:02:19;99452.75;;;4.07;53.98
38780;BME280;29273;49.962;9.768;2023-02-26T02:04:47;99468.00;;;4.03;53.61
38780;BME280;29273;49.962;9.768;2023-02-26T02:07:14;99468.97;;;4.02;54.32
38780;BME280;29273;49.962;9.768;2023-02-26T02:09:39;99469.28;;;3.99;53.87
38780;BME280;29273;49.962;9.768;2023-02-26T02:17:13;99476.19;;;3.92;54.14
38780;BME280;29273;49.962;9.768;2023-02-26T02:20:12;99477.69;;;3.95;55.29
38780;BME280;29273;49.962;9.768;2023-02-26T02:23:00;99475.06;;;3.95;55.20
38780;BME280;29273;49.962;9.768;2023-02-26T02:29:04;99491.59;;;3.95;56.01
38780;BME280;29273;49.962;9.768;2023-02-26T02:34:38;99485.69;;;4.01;56.21
38780;BME280;29273;49.962;9.768;2023-02-26T02:37:45;99490.94;;;4.01;56.15
38780;BME280;29273;49.962;9.768;2023-02-26T02:40:25;99494.03;;;4.05;56.05
38780;BME280;29273;49.962;9.768;2023-02-26T02:42:58;99492.88;;;4.07;55.70
38780;BME280;29273;49.962;9.768;2023-02-26T02:45:40;99491.44;;;3.88;57.20
38780;BME280;29273;49.962;9.768;2023-02-26T02:48:12;99504.34;;;4.06;56.41
38780;BME280;29273;49.962;9.768;2023-02-26T02:50:45;99502.53;;;4.07;55.46
38780;BME280;29273;49.962;9.768;2023-02-26T02:58:25;99516.94;;;4.11;54.82
38780;BME280;29273;49.962;9.768;2023-02-26T03:00:56;99506.13;;;4.14;55.07
38780;BME280;29273;49.962;9.768;2023-02-26T03:03:27;99509.56;;;4.15;54.77
38780;BME280;29273;49.962;9.768;2023-02-26T03:05:56;99516.75;;;4.13;54.20
38780;BME280;29273;49.962;9.768;2023-02-26T03:08:26;99509.38;;;4.16;54.32
38780;BME280;29273;49.962;9.768;2023-02-26T03:10:52;99515.31;;;4.10;53.75
38780;BME280;29273;49.962;9.768;2023-02-26T03:13:21;99509.91;;;4.12;54.76
38780;BME280;29273;49.962;9.768;2023-02-26T03:16:05;99516.94;;;4.11;54.96
38780;BME280;29273;49.962;9.768;2023-02-26T03:22:26;99524.81;;;4.03;54.63
38780;BME280;29273;49.962;9.768;2023-02-26T03:32:55;99545.13;;;3.93;54.79
38780;BME280;29273;49.962;9.768;2023-02-26T03:35:31;99542.66;;;3.91;55.21
38780;BME280;29273;49.962;9.768;2023-02-26T03:38:02;99545.81;;;3.86;54.69
38780;BME280;29273;49.962;9.768;2023-02-26T03:41:02;99546.94;;;3.84;55.78
38780;BME280;29273;49.962;9.768;2023-02-26T03:43:41;99547.91;;;3.83;55.80
38780;BME280;29273;49.962;9.768;2023-02-26T03:46:15;99550.38;;;3.84;55.75
38780;BME280;29273;49.962;9.768;2023-02-26T03:48:45;99550.38;;;3.84;55.46
38780;BME280;29273;49.962;9.768;2023-02-26T03:51:13;99553.97;;;3.83;55.46
38780;BME280;29273;49.962;9.768;2023-02-26T03:54:19;99557.91;;;3.87;56.05
38780;BME280;29273;49.962;9.768;2023-02-26T03:56:53;99556.59;;;3.83;55.38
38780;BME280;29273;49.962;9.768;2023-02-26T03:59:45;99568.88;;;3.83;55.12
38780;BME280;29273;49.962;9.768;2023-02-26T04:02:52;99570.19;;;3.87;56.85
38780;BME280;29273;49.962;9.768;2023-02-26T04:05:23;99568.38;;;3.87;55.67
38780;BME280;29273;49.962;9.768;2023-02-26T04:07:49;99576.41;;;3.86;55.11
38780;BME280;29273;49.962;9.768;2023-02-26T04:10:18;99578.53;;;3.91;55.53
38780;BME280;29273;49.962;9.768;2023-02-26T04:12:46;99579.50;;;3.89;55.18
38780;BME280;29273;49.962;9.768;2023-02-26T04:15:12;99584.75;;;3.89;54.90
38780;BME280;29273;49.962;9.768;2023-02-26T04:17:39;99579.50;;;3.89;54.53
38780;BME280;29273;49.962;9.768;2023-02-26T04:20:06;99586.41;;;3.91;54.75
38780;BME280;29273;49.962;9.768;2023-02-26T04:22:34;99582.13;;;3.89;54.29
38780;BME280;29273;49.962;9.768;2023-02-26T04:25:00;99582.97;;;3.90;54.23
38780;BME280;29273;49.962;9.768;2023-02-26T04:27:25;99582.97;;;3.90;54.30
38780;BME280;29273;49.962;9.768;2023-02-26T04:29:51;99587.38;;;3.89;53.87
38780;BME280;29273;49.962;9.768;2023-02-26T04:32:16;99588.53;;;3.87;54.00
38780;BME280;29273;49.962;9.768;2023-02-26T04:34:42;99592.28;;;3.84;53.94
38780;BME280;29273;49.962;9.768;2023-02-26T04:37:08;99593.28;;;3.83;54.41
38780;BME280;29273;49.962;9.768;2023-02-26T04:39:36;99595.22;;;3.81;54.16
38780;BME280;29273;49.962;9.768;2023-02-26T04:42:01;99594.56;;;3.79;54.30
38780;BME280;29273;49.962;9.768;2023-02-26T04:44:29;99596.38;;;3.79;54.13
38780;BME280;29273;49.962;9.768;2023-02-26T04:46:55;99606.22;;;3.77;53.83
38780;BME280;29273;49.962;9.768;2023-02-26T04:49:22;99608.00;;;3.76;53.78
38780;BME280;29273;49.962;9.768;2023-02-26T04:51:47;99597.19;;;3.71;53.88
38780;BME280;29273;49.962;9.768;2023-02-26T04:54:14;99609.63;;;3.69;53.88
38780;BME280;29273;49.962;9.768;2023-02-26T04:56:40;99612.72;;;3.64;53.78
38780;BME280;29273;49.962;9.768;2023-02-26T04:59:06;99619.94;;;3.62;53.98
38780;BME280;29273;49.962;9.768;2023-02-26T05:01:32;99614.19;;;3.59;53.85
38780;BME280;29273;49.962;9.768;2023-02-26T05:03:58;99611.91;;;3.56;54.22
38780;BME280;29273;49.962;9.768;2023-02-26T05:06:23;99619.09;;;3.54;54.26
38780;BME280;29273;49.962;9.768;2023-02-26T05:08:49;99626.31;;;3.51;54.17
38780;BME280;29273;49.962;9.768;2023-02-26T05:11:16;99627.28;;;3.50;54.63
38780;BME280;29273;49.962;9.768;2023-02-26T05:13:42;99637.91;;;3.49;54.78
38780;BME280;29273;49.962;9.768;2023-02-26T05:16:08;99642.97;;;3.50;55.13
38780;BME280;29273;49.962;9.768;2023-02-26T05:18:34;99642.97;;;3.50;55.08
38780;BME280;29273;49.962;9.768;2023-02-26T05:21:00;99648.06;;;3.52;55.02
38780;BME280;29273;49.962;9.768;2023-02-26T05:23:26;99648.88;;;3.52;55.33
38780;BME280;29273;49.962;9.768;2023-02-26T05:25:54;99640.53;;;3.57;55.92
38780;BME280;29273;49.962;9.768;2023-02-26T05:28:20;99636.44;;;3.55;55.02
38780;BME280;29273;49.962;9.768;2023-02-26T05:30:46;99637.13;;;3.57;55.37
38780;BME280;29273;49.962;9.768;2023-02-26T05:33:12;99647.59;;;3.57;54.81
38780;BME280;29273;49.962;9.768;2023-02-26T05:35:38;99641.34;;;3.58;54.52
38780;BME280;29273;49.962;9.768;2023-02-26T05:38:03;99649.06;;;3.59;54.88
38780;BME280;29273;49.962;9.768;2023-02-26T05:40:28;99643.00;;;3.59;54.85
38780;BME280;29273;49.962;9.768;2023-02-26T05:42:54;99653.31;;;3.60;54.84
38780;BME280;29273;49.962;9.768;2023-02-26T05:45:19;99658.41;;;3.62;54.92
38780;BME280;29273;49.962;9.768;2023-02-26T05:47:45;99660.84;;;3.63;54.84
38780;BME280;29273;49.962;9.768;2023-02-26T05:50:11;99669.53;;;3.64;55.16
38780;BME280;29273;49.962;9.768;2023-02-26T05:52:36;99660.84;;;3.63;55.05
38780;BME280;29273;49.962;9.768;2023-02-26T05:55:03;99669.38;;;3.65;55.05
38780;BME280;29273;49.962;9.768;2023-02-26T05:57:29;99668.56;;;3.65;54.84
38780;BME280;29273;49.962;9.768;2023-02-26T05:59:54;99674.59;;;3.65;54.98
38780;BME280;29273;49.962;9.768;2023-02-26T06:02:20;99674.59;;;3.65;55.03
38780;BME280;29273;49.962;9.768;2023-02-26T06:04:45;99678.03;;;3.66;55.07
38780;BME280;29273;49.962;9.768;2023-02-26T06:07:11;99683.28;;;3.66;55.38
38780;BME280;29273;49.962;9.768;2023-02-26T06:09:37;99683.28;;;3.66;54.92
38780;BME280;29273;49.962;9.768;2023-02-26T06:12:02;99690.31;;;3.65;55.13
38780;BME280;29273;49.962;9.768;2023-02-26T06:14:28;99699.00;;;3.66;55.31
38780;BME280;29273;49.962;9.768;2023-02-26T06:16:54;99700.78;;;3.65;55.29
38780;BME280;29273;49.962;9.768;2023-02-26T06:19:19;99701.59;;;3.66;55.36
38780;BME280;29273;49.962;9.768;2023-02-26T06:21:46;99712.94;;;3.66;55.32
38780;BME280;29273;49.962;9.768;2023-02-26T06:24:12;99714.53;;;3.67;55.17
38780;BME280;29273;49.962;9.768;2023-02-26T06:26:37;99715.53;;;3.66;54.62
38780;BME280;29273;49.962;9.768;2023-02-26T06:29:03;99710.13;;;3.68;55.39
38780;BME280;29273;49.962;9.768;2023-02-26T06:31:28;99722.41;;;3.67;55.13
38780;BME280;29273;49.962;9.768;2023-02-26T06:33:54;99721.59;;;3.67;55.18
38780;BME280;29273;49.962;9.768;2023-02-26T06:36:19;99721.59;;;3.67;55.18
38780;BME280;29273;49.962;9.768;2023-02-26T06:38:44;99731.06;;;3.68;55.33
38780;BME280;29273;49.962;9.768;2023-02-26T06:41:11;99745.81;;;3.69;55.37
38780;BME280;29273;49.962;9.768;2023-02-26T06:43:36;99741.38;;;3.69;54.97
38780;BME280;29273;49.962;9.768;2023-02-26T06:46:02;99745.00;;;3.68;55.09
38780;BME280;29273;49.962;9.768;2023-02-26T06:48:28;99749.25;;;3.69;54.97
38780;BME280;29273;49.962;9.768;2023-02-26T06:50:53;99758.09;;;3.68;54.59
38780;BME280;29273;49.962;9.768;2023-02-26T06:53:19;99753.84;;;3.67;54.57
38780;BME280;29273;49.962;9.768;2023-02-26T06:55:46;99760.88;;;3.67;54.19
38780;BME280;29273;49.962;9.768;2023-02-26T06:58:12;99773.31;;;3.65;54.26
38780;BME280;29273;49.962;9.768;2023-02-26T07:00:38;99782.13;;;3.64;54.32
38780;BME280;29273;49.962;9.768;2023-02-26T07:03:06;99783.09;;;3.63;54.67
38780;BME280;29273;49.962;9.768;2023-02-26T07:05:31;99794.06;;;3.58;54.21
38780;BME280;29273;49.962;9.768;2023-02-26T07:07:57;99801.25;;;3.56;54.39
38780;BME280;29273;49.962;9.768;2023-02-26T07:10:22;99800.44;;;3.56;54.31
38780;BME280;29273;49.962;9.768;2023-02-26T07:12:50;99807.31;;;3.57;54.03
38780;BME280;29273;49.962;9.768;2023-02-26T07:15:16;99815.84;;;3.59;53.95
38780;BME280;29273;49.962;9.768;2023-02-26T07:17:42;99814.03;;;3.59;53.44
38780;BME280;29273;49.962;9.768;2023-02-26T07:20:08;99830.25;;;3.63;54.06
38780;BME280;29273;49.962;9.768;2023-02-26T07:22:35;99825.69;;;3.65;53.81
38780;BME280;29273;49.962;9.768;2023-02-26T07:25:02;99830.59;;;3.68;54.02
38780;BME280;29273;49.962;9.768;2023-02-26T07:27:28;99830.44;;;3.69;53.48
38780;BME280;29273;49.962;9.768;2023-02-26T07:29:54;99830.97;;;3.73;54.05
38780;BME280;29273;49.962;9.768;2023-02-26T07:32:20;99834.25;;;3.75;53.99
38780;BME280;29273;49.962;9.768;2023-02-26T07:34:46;99837.53;;;3.77;53.19
38780;BME280;29273;49.962;9.768;2023-02-26T07:37:11;99845.09;;;3.80;52.62
38780;BME280;29273;49.962;9.768;2023-02-26T07:39:37;99851.94;;;3.81;52.92
38780;BME280;29273;49.962;9.768;2023-02-26T07:42:02;99850.97;;;3.82;53.00
38780;BME280;29273;49.962;9.768;2023-02-26T07:44:28;99856.06;;;3.84;52.17
38780;BME280;29273;49.962;9.768;2023-02-26T07:46:54;99852.31;;;3.86;52.96
38780;BME280;29273;49.962;9.768;2023-02-26T07:49:19;99865.09;;;3.89;53.74
38780;BME280;29273;49.962;9.768;2023-02-26T07:51:46;99871.50;;;3.95;54.37
38780;BME280;29273;49.962;9.768;2023-02-26T07:54:13;99869.41;;;3.99;54.11
38780;BME280;29273;49.962;9.768;2023-02-26T07:56:39;99877.75;;;4.02;53.92
38780;BME280;29273;49.962;9.768;2023-02-26T07:59:07;99880.72;;;4.07;54.76
38780;BME280;29273;49.962;9.768;2023-02-26T08:01:34;99884.00;;;4.10;53.97
38780;BME280;29273;49.962;9.768;2023-02-26T08:03:59;99886.16;;;4.14;54.31
38780;BME280;29273;49.962;9.768;2023-02-26T08:06:25;99884.88;;;4.18;54.30
38780;BME280;29273;49.962;9.768;2023-02-26T08:08:50;99893.09;;;4.23;54.33
38780;BME280;29273;49.962;9.768;2023-02-26T08:11:16;99896.22;;;4.27;53.86
38780;BME280;29273;49.962;9.768;2023-02-26T08:13:41;99901.13;;;4.30;54.13
38780;BME280;29273;49.962;9.768;2023-02-26T08:16:07;99895.75;;;4.32;54.04
38780;BME280;29273;49.962;9.768;2023-02-26T08:18:32;99905.06;;;4.34;54.33
38780;BME280;29273;49.962;9.768;2023-02-26T08:20:58;99908.53;;;4.35;53.16
38780;BME280;29273;49.962;9.768;2023-02-26T08:23:23;99906.41;;;4.38;53.23
38780;BME280;29273;49.962;9.768;2023-02-26T08:25:59;99914.31;;;4.47;54.49
38780;BME280;29273;49.962;9.768;2023-02-26T08:28:24;99907.72;;;4.42;53.36
38780;BME280;29273;49.962;9.768;2023-02-26T08:30:53;99919.25;;;4.50;54.20
38780;BME280;29273;49.962;9.768;2023-02-26T08:33:18;99918.25;;;4.51;54.33
38780;BME280;29273;49.962;9.768;2023-02-26T08:35:44;99919.75;;;4.53;54.00
38780;BME280;29273;49.962;9.768;2023-02-26T08:38:10;99921.06;;;4.57;54.23
38780;BME280;29273;49.962;9.768;2023-02-26T08:40:35;99932.88;;;4.61;53.67
38780;BME280;29273;49.962;9.768;2023-02-26T08:43:01;99937.78;;;4.64;52.96
38780;BME280;29273;49.962;9.768;2023-02-26T08:45:28;99933.88;;;4.69;52.82
38780;BME280;29273;49.962;9.768;2023-02-26T08:47:53;99938.66;;;4.73;53.27
38780;BME280;29273;49.962;9.768;2023-02-26T08:50:20;99932.91;;;4.78;53.72
38780;BME280;29273;49.962;9.768;2023-02-26T08:52:45;99937.00;;;4.80;54.25
38780;BME280;29273;49.962;9.768;2023-02-26T08:55:11;99949.16;;;4.81;53.34
38780;BME280;29273;49.962;9.768;2023-02-26T08:57:36;99945.38;;;4.84;53.47
38780;BME280;29273;49.962;9.768;2023-02-26T09:00:03;99953.59;;;4.89;53.39
38780;BME280;29273;49.962;9.768;2023-02-26T09:02:29;99950.16;;;4.89;52.32
38780;BME280;29273;49.962;9.768;2023-02-26T09:04:54;99950.00;;;4.90;52.44
38780;BME280;29273;49.962;9.768;2023-02-26T09:07:20;99952.31;;;4.93;52.70
38780;BME280;29273;49.962;9.768;2023-02-26T09:09:45;99958.19;;;4.95;52.57
38780;BME280;29273;49.962;9.768;2023-02-26T09:12:11;99964.09;;;4.97;53.00
38780;BME280;29273;49.962;9.768;2023-02-26T09:14:36;99958.84;;;4.97;51.95
38780;BME280;29273;49.962;9.768;2023-02-26T09:17:03;99968.06;;;5.02;52.36
38780;BME280;29273;49.962;9.768;2023-02-26T09:19:28;99966.41;;;5.00;52.47
38780;BME280;29273;49.962;9.768;2023-02-26T09:21:53;99977.72;;;5.01;52.53
38780;BME280;29273;49.962;9.768;2023-02-26T09:24:20;99978.72;;;5.00;51.73
38780;BME280;29273;49.962;9.768;2023-02-26T09:26:45;99987.88;;;4.96;49.29
38780;BME280;29273;49.962;9.768;2023-02-26T09:29:11;99981.16;;;4.93;50.31
38780;BME280;29273;49.962;9.768;2023-02-26T09:31:37;99987.53;;;4.91;50.95
38780;BME280;29273;49.962;9.768;2023-02-26T09:34:02;99989.69;;;4.87;52.19
38780;BME280;29273;49.962;9.768;2023-02-26T09:36:28;100002.78;;;4.79;49.47
38780;BME280;29273;49.962;9.768;2023-02-26T09:38:55;99997.84;;;4.76;49.77
38780;BME280;29273;49.962;9.768;2023-02-26T09:41:25;100010.94;;;4.76;50.94
38780;BME280;29273;49.962;9.768;2023-02-26T09:44:13;100014.88;;;4.72;52.28
38780;BME280;29273;49.962;9.768;2023-02-26T09:52:03;100014.88;;;4.72;53.08
38780;BME280;29273;49.962;9.768;2023-02-26T09:54:40;100020.78;;;4.74;53.32
38780;BME280;29273;49.962;9.768;2023-02-26T09:57:12;100027.53;;;4.76;53.22
38780;BME280;29273;49.962;9.768;2023-02-26T09:59:39;100030.97;;;4.77;53.25
38780;BME280;29273;49.962;9.768;2023-02-26T10:04:48;100031.03;;;4.93;54.08
38780;BME280;29273;49.962;9.768;2023-02-26T10:07:36;100043.00;;;4.96;54.05
38780;BME280;29273;49.962;9.768;2023-02-26T10:12:49;100042.56;;;5.09;52.65
38780;BME280;29273;49.962;9.768;2023-02-26T10:15:20;100047.03;;;5.16;52.78
38780;BME280;29273;49.962;9.768;2023-02-26T10:18:08;100046.34;;;5.23;53.66
38780;BME280;29273;49.962;9.768;2023-02-26T10:24:06;100053.56;;;5.21;54.64
38780;BME280;29273;49.962;9.768;2023-02-26T10:26:39;100061.78;;;5.26;52.42
38780;BME280;29273;49.962;9.768;2023-02-26T10:34:28;100071.81;;;5.30;52.10
38780;BME280;29273;49.962;9.768;2023-02-26T10:39:47;100073.66;;;5.46;54.34
38780;BME280;29273;49.962;9.768;2023-02-26T10:42:28;100084.50;;;5.51;52.60
38780;BME280;29273;49.962;9.768;2023-02-26T10:45:12;100077.13;;;5.55;52.02
38780;BME280;29273;49.962;9.768;2023-02-26T10:47:55;100081.38;;;5.64;54.21
38780;BME280;29273;49.962;9.768;2023-02-26T10:50:24;100098.31;;;5.62;49.43
38780;BME280;29273;49.962;9.768;2023-02-26T10:52:52;100092.75;;;5.73;52.30
38780;BME280;29273;49.962;9.768;2023-02-26T10:57:55;100092.09;;;5.87;52.92
38780;BME280;29273;49.962;9.768;2023-02-26T11:00:24;100087.47;;;5.89;50.52
38780;BME280;29273;49.962;9.768;2023-02-26T11:02:52;100090.97;;;5.98;51.43
38780;BME280;29273;49.962;9.768;2023-02-26T11:05:28;100086.53;;;6.07;51.82
38780;BME280;29273;49.962;9.768;2023-02-26T11:07:56;100078.47;;;6.08;50.63
38780;BME280;29273;49.962;9.768;2023-02-26T11:10:25;100078.16;;;6.11;49.16
38780;BME280;29273;49.962;9.768;2023-02-26T11:12:52;100075.53;;;6.11;49.97
38780;BME280;29273;49.962;9.768;2023-02-26T11:15:20;100080.94;;;6.18;51.09
38780;BME280;29273;49.962;9.768;2023-02-26T11:17:48;100078.31;;;6.18;50.07
38780;BME280;29273;49.962;9.768;2023-02-26T11:20:29;100076.16;;;6.22;51.26
38780;BME280;29273;49.962;9.768;2023-02-26T11:22:57;100079.13;;;6.19;49.42
38780;BME280;29273;49.962;9.768;2023-02-26T11:25:27;100090.13;;;6.22;51.50
38780;BME280;29273;49.962;9.768;2023-02-26T11:28:04;100091.31;;;6.20;49.02
38780;BME280;29273;49.962;9.768;2023-02-26T11:30:35;100096.41;;;6.21;49.80
38780;BME280;29273;49.962;9.768;2023-02-26T11:33:21;100092.28;;;6.19;48.86
38780;BME280;29273;49.962;9.768;2023-02-26T11:35:47;100094.75;;;6.20;48.96
38780;BME280;29273;49.962;9.768;2023-02-26T11:38:18;100103.59;;;6.27;49.91
38780;BME280;29273;49.962;9.768;2023-02-26T11:40:47;100105.25;;;6.28;49.12
38780;BME280;29273;49.962;9.768;2023-02-26T11:43:18;100101.47;;;6.31;51.09
38780;BME280;29273;49.962;9.768;2023-02-26T11:45:47;100108.53;;;6.30;50.98
38780;BME280;29273;49.962;9.768;2023-02-26T11:48:20;100111.34;;;6.29;48.43
38780;BME280;29273;49.962;9.768;2023-02-26T11:50:51;100101.66;;;6.29;50.35
38780;BME280;29273;49.962;9.768;2023-02-26T11:53:29;100105.25;;;6.28;50.17
38780;BME280;29273;49.962;9.768;2023-02-26T11:56:01;100107.88;;;6.28;51.46
38780;BME280;29273;49.962;9.768;2023-02-26T11:58:33;100104.94;;;6.23;48.53
38780;BME280;29273;49.962;9.768;2023-02-26T12:01:00;100100.50;;;6.24;49.97
38780;BME280;29273;49.962;9.768;2023-02-26T12:03:28;100093.25;;;6.26;50.00
38780;BME280;29273;49.962;9.768;2023-02-26T12:05:53;100092.28;;;6.27;48.57
38780;BME280;29273;49.962;9.768;2023-02-26T12:08:29;100103.75;;;6.34;50.63
38780;BME280;29273;49.962;9.768;2023-02-26T12:22:12;100103.28;;;6.39;51.62
38780;BME280;29273;49.962;9.768;2023-02-26T12:28:33;100111.31;;;6.45;50.96
38780;BME280;29273;49.962;9.768;2023-02-26T12:39:31;100111.16;;;6.47;50.90
38780;BME280;29273;49.962;9.768;2023-02-26T12:42:16;100124.31;;;6.47;51.37
38780;BME280;29273;49.962;9.768;2023-02-26T12:51:04;100127.91;;;6.46;52.32
38780;BME280;29273;49.962;9.768;2023-02-26T12:53:47;100115.13;;;6.43;50.23
38780;BME280;29273;49.962;9.768;2023-02-26T12:59:12;100111.00;;;6.40;48.43
38780;BME280;29273;49.962;9.768;2023-02-26T13:02:17;100090.91;;;6.39;53.34
38780;BME280;29273;49.962;9.768;2023-02-26T13:07:21;100115.28;;;6.41;49.23
38780;BME280;29273;49.962;9.768;2023-02-26T13:15:52;100111.66;;;6.26;47.66
38780;BME280;29273;49.962;9.768;2023-02-26T13:18:29;100105.91;;;6.30;49.78
38780;BME280;29273;49.962;9.768;2023-02-26T13:21:04;100111.00;;;6.32;49.00
38780;BME280;29273;49.962;9.768;2023-02-26T13:23:46;100107.41;;;6.33;48.29
38780;BME280;29273;49.962;9.768;2023-02-26T13:26:13;100117.44;;;6.29;46.25
38780;BME280;29273;49.962;9.768;2023-02-26T13:28:54;100115.78;;;6.28;46.28
38780;BME280;29273;49.962;9.768;2023-02-26T13:31:25;100115.63;;;6.30;46.37
38780;BME280;29273;49.962;9.768;2023-02-26T13:33:54;100111.66;;;6.26;46.11
38780;BME280;29273;49.962;9.768;2023-02-26T13:36:21;100115.28;;;6.25;46.56
38780;BME280;29273;49.962;9.768;2023-02-26T13:51:13;100116.59;;;6.13;48.33
38780;BME280;29273;49.962;9.768;2023-02-26T13:53:57;100115.28;;;6.17;47.68
38780;BME280;29273;49.962;9.768;2023-02-26T14:01:34;100114.28;;;6.26;49.22
38780;BME280;29273;49.962;9.768;2023-02-26T14:06:55;100108.69;;;6.37;48.84
38780;BME280;29273;49.962;9.768;2023-02-26T14:12:22;100119.22;;;6.37;49.27
38780;BME280;29273;49.962;9.768;2023-02-26T14:17:47;100126.31;;;6.28;43.67
38780;BME280;29273;49.962;9.768;2023-02-26T14:22:58;100126.94;;;6.22;45.08
38780;BME280;29273;49.962;9.768;2023-02-26T14:25:38;100130.06;;;6.18;44.28
38780;BME280;29273;49.962;9.768;2023-02-26T14:31:13;100130.75;;;6.20;46.36
38780;BME280;29273;49.962;9.768;2023-02-26T14:33:46;100132.22;;;6.22;47.40
38780;BME280;29273;49.962;9.768;2023-02-26T14:36:20;100144.72;;;6.28;49.36
38780;BME280;29273;49.962;9.768;2023-02-26T14:38:52;100150.63;;;6.22;45.69
38780;BME280;29273;49.962;9.768;2023-02-26T14:41:28;100154.25;;;6.29;48.25
38780;BME280;29273;49.962;9.768;2023-02-26T14:44:14;100151.94;;;6.26;48.04
38780;BME280;29273;49.962;9.768;2023-02-26T14:46:42;100143.75;;;6.21;45.38
38780;BME280;29273;49.962;9.768;2023-02-26T14:49:27;100152.59;;;6.28;48.46
38780;BME280;29273;49.962;9.768;2023-02-26T14:52:13;100155.41;;;6.27;43.72
38780;BME280;29273;49.962;9.768;2023-02-26T14:54:57;100155.06;;;6.30;46.75
38780;BME280;29273;49.962;9.768;2023-02-26T14:57:48;100167.72;;;6.26;47.28
38780;BME280;29273;49.962;9.768;2023-02-26T15:00:48;100163.28;;;6.27;46.86
38780;BME280;29273;49.962;9.768;2023-02-26T15:08:40;100166.88;;;6.26;45.60
38780;BME280;29273;49.962;9.768;2023-02-26T15:11:25;100173.66;;;6.28;45.11
38780;BME280;29273;49.962;9.768;2023-02-26T15:17:37;100188.09;;;6.24;46.24
38780;BME280;29273;49.962;9.768;2023-02-26T15:20:22;100193.34;;;6.24;45.65
38780;BME280;29273;49.962;9.768;2023-02-26T15:23:35;100187.94;;;6.18;45.62
38780;BME280;29273;49.962;9.768;2023-02-26T15:26:03;100197.16;;;6.22;45.29
38780;BME280;29273;49.962;9.768;2023-02-26T15:28:33;100195.34;;;6.22;45.29
38780;BME280;29273;49.962;9.768;2023-02-26T15:31:01;100201.75;;;6.20;44.91
38780;BME280;29273;49.962;9.768;2023-02-26T15:33:28;100204.38;;;6.20;45.02
38780;BME280;29273;49.962;9.768;2023-02-26T15:35:55;100202.41;;;6.22;45.99
38780;BME280;29273;49.962;9.768;2023-02-26T15:38:20;100198.28;;;6.19;44.29
38780;BME280;29273;49.962;9.768;2023-02-26T15:40:48;100198.28;;;6.19;43.21
38780;BME280;29273;49.962;9.768;2023-02-26T15:43:20;100201.06;;;6.18;40.81
38780;BME280;29273;49.962;9.768;2023-02-26T15:45:48;100210.13;;;6.15;42.42
38780;BME280;29273;49.962;9.768;2023-02-26T15:48:19;100216.84;;;6.18;44.68
38780;BME280;29273;49.962;9.768;2023-02-26T15:50:51;100216.19;;;6.16;45.17
38780;BME280;29273;49.962;9.768;2023-02-26T15:53:26;100217.84;;;6.17;46.74